createdAt,value
2019-06-07T00:01:48.911Z,9.00
2019-06-07T00:04:21.250Z,8.43
2019-06-07T00:06:49.597Z,9.07
2019-06-07T00:09:22.485Z,8.27
2019-06-07T00:11:50.200Z,8.50
2019-06-07T00:14:21.137Z,8.93
2019-06-07T00:16:50.978Z,9.17
2019-06-07T00:19:20.416Z,8.13
2019-06-07T00:24:21.863Z,8.80
2019-06-07T00:26:58.549Z,8.77
2019-06-07T00:29:22.927Z,9.60
2019-06-07T00:31:52.673Z,9.10
2019-06-07T00:34:23.379Z,9.00
2019-06-07T00:36:53.382Z,9.23
2019-06-07T00:39:25.627Z,8.70
2019-06-07T00:41:54.148Z,9.13
2019-06-07T00:44:23.738Z,8.33
2019-06-07T00:46:53.437Z,11.27
2019-06-07T00:49:39.916Z,9.30
2019-06-07T00:51:54.143Z,9.43
2019-06-07T00:54:24.919Z,9.30
2019-06-07T00:56:54.726Z,8.90
2019-06-07T00:59:29.323Z,8.77
2019-06-07T01:01:55.496Z,9.43
2019-06-07T01:04:26.313Z,9.73
2019-06-07T01:06:56.103Z,9.33
2019-06-07T01:09:25.801Z,8.70
2019-06-07T01:11:55.336Z,9.73
2019-06-07T01:14:27.978Z,9.97
2019-06-07T01:17:01.492Z,9.90
2019-06-07T01:19:28.008Z,10.00
2019-06-07T01:21:57.771Z,9.53
2019-06-07T01:24:27.990Z,9.70
2019-06-07T01:26:57.730Z,9.67
2019-06-07T01:29:30.380Z,9.60
2019-06-07T01:31:58.329Z,9.20
2019-06-07T01:34:28.913Z,10.10
2019-06-07T01:36:58.542Z,10.13
2019-06-07T01:39:29.824Z,9.57
2019-06-07T01:41:59.415Z,9.50
2019-06-07T01:44:31.128Z,9.93
2019-06-07T01:47:00.026Z,9.17
2019-06-07T01:49:29.967Z,9.87
2019-06-07T01:51:59.528Z,9.60
2019-06-07T01:57:00.179Z,9.43
2019-06-07T01:59:31.612Z,9.57
2019-06-07T02:02:00.973Z,10.10
2019-06-07T02:04:33.053Z,9.03
2019-06-07T02:07:01.582Z,10.23
2019-06-07T02:09:31.869Z,9.53
2019-06-07T02:12:01.670Z,9.43
2019-06-07T02:14:33.461Z,10.60
2019-06-07T02:17:02.579Z,9.47
2019-06-07T02:19:37.366Z,9.37
2019-06-07T02:22:06.860Z,10.30
2019-06-07T02:24:36.678Z,10.00
2019-06-07T02:27:06.332Z,9.43
2019-06-07T02:29:35.801Z,10.37
2019-06-07T02:32:05.293Z,10.87
2019-06-07T02:34:38.791Z,10.77
2019-06-07T02:37:08.457Z,9.33
2019-06-07T02:39:40.867Z,9.33
2019-06-07T02:42:09.032Z,9.70
2019-06-07T02:44:39.960Z,8.50
2019-06-07T02:47:09.632Z,9.33
2019-06-07T02:49:41.627Z,9.47
2019-06-07T02:52:10.289Z,10.30
2019-06-07T02:54:40.708Z,10.77
2019-06-07T02:57:10.466Z,10.77
2019-06-07T03:00:05.498Z,10.73
2019-06-07T03:02:11.204Z,10.70
2019-06-07T03:04:44.552Z,9.70
2019-06-07T03:07:13.434Z,8.97
2019-06-07T03:09:44.744Z,10.17
2019-06-07T03:12:15.954Z,9.43
2019-06-07T03:14:45.629Z,10.27
2019-06-07T03:17:40.675Z,10.17
2019-06-07T03:20:12.250Z,10.77
2019-06-07T03:22:43.334Z,10.10
2019-06-07T03:25:13.068Z,10.30
2019-06-07T03:27:49.625Z,9.97
2019-06-07T03:32:47.975Z,10.20
2019-06-07T03:35:16.974Z,10.53
2019-06-07T03:37:46.442Z,10.27
2019-06-07T03:40:15.945Z,9.90
2019-06-07T03:42:45.400Z,10.40
2019-06-07T03:45:14.912Z,9.57
2019-06-07T03:47:44.386Z,9.23
2019-06-07T03:50:14.100Z,8.73
2019-06-07T03:52:43.594Z,9.13
2019-06-07T03:55:13.061Z,9.40
2019-06-07T04:00:13.655Z,9.77
2019-06-07T04:02:43.161Z,10.10
2019-06-07T04:05:12.616Z,10.53
2019-06-07T04:07:44.285Z,10.57
2019-06-07T04:10:13.437Z,10.17
2019-06-07T04:12:44.232Z,11.30
2019-06-07T04:15:14.309Z,11.13
2019-06-07T04:18:01.017Z,10.37
2019-06-07T04:20:14.973Z,9.37
2019-06-07T04:22:44.742Z,8.87
2019-06-07T04:25:14.658Z,10.43
2019-06-07T04:27:44.650Z,10.77
2019-06-07T04:30:15.864Z,10.20
2019-06-07T04:32:45.328Z,10.63
2019-06-07T04:35:14.838Z,10.27
2019-06-07T04:37:44.311Z,10.63
2019-06-07T04:40:13.837Z,10.57
2019-06-07T04:42:45.831Z,11.60
2019-06-07T04:45:33.118Z,11.23
2019-06-07T04:47:48.883Z,11.70
2019-06-07T04:50:18.463Z,10.47
2019-06-07T04:52:48.019Z,11.07
2019-06-07T04:55:17.504Z,10.43
2019-06-07T04:57:46.966Z,10.23
2019-06-07T05:00:48.693Z,10.73
2019-06-07T05:02:51.748Z,10.63
2019-06-07T05:05:21.223Z,10.83
2019-06-07T05:07:50.717Z,9.93
2019-06-07T05:10:20.187Z,9.97
2019-06-07T05:12:49.667Z,9.87
2019-06-07T05:15:19.256Z,10.23
2019-06-07T05:17:49.352Z,10.07
2019-06-07T05:20:18.936Z,9.67
2019-06-07T05:22:48.439Z,10.00
2019-06-07T05:25:18.012Z,10.37
2019-06-07T05:27:47.491Z,10.90
2019-06-07T05:33:02.364Z,10.90
2019-06-07T05:35:35.433Z,10.83
2019-06-07T05:38:04.832Z,10.53
2019-06-07T05:40:43.939Z,10.80
2019-06-07T05:43:22.732Z,10.73
2019-06-07T05:45:52.240Z,11.37
2019-06-07T05:48:21.769Z,11.47
2019-06-07T05:50:57.048Z,10.90
2019-06-07T05:53:22.382Z,10.23
2019-06-07T05:55:51.923Z,11.07
2019-06-07T05:58:21.352Z,9.83
2019-06-07T06:00:51.069Z,10.37
2019-06-07T06:03:20.704Z,9.57
2019-06-07T06:05:54.865Z,9.93
2019-06-07T06:08:21.328Z,9.93
2019-06-07T06:10:50.803Z,9.33
2019-06-07T06:13:20.297Z,9.27
2019-06-07T06:16:00.572Z,9.00
2019-06-07T06:18:20.875Z,9.93
2019-06-07T06:21:09.445Z,9.27
2019-06-07T06:23:21.549Z,9.13
2019-06-07T06:25:57.167Z,9.43
2019-06-07T06:28:22.172Z,9.43
2019-06-07T06:30:51.755Z,8.57
2019-06-07T06:33:33.474Z,10.00
2019-06-07T06:35:52.328Z,9.50
2019-06-07T06:38:21.837Z,8.77
2019-06-07T06:41:11.286Z,9.27
2019-06-07T06:43:22.776Z,8.87
2019-06-07T06:45:52.289Z,9.30
2019-06-07T06:48:21.865Z,8.73
2019-06-07T06:50:52.716Z,7.50
2019-06-07T06:53:22.316Z,7.90
2019-06-07T06:55:51.824Z,7.30
2019-06-07T06:58:21.302Z,6.93
2019-06-07T07:01:04.289Z,8.37
2019-06-07T07:03:57.499Z,7.40
2019-06-07T07:05:54.954Z,7.30
2019-06-07T07:08:24.672Z,7.27
2019-06-07T07:10:55.083Z,7.93
2019-06-07T07:13:26.108Z,8.00
2019-06-07T07:15:58.046Z,7.00
2019-06-07T07:18:27.162Z,7.63
2019-06-07T07:20:57.605Z,7.90
2019-06-07T07:23:27.321Z,7.50
2019-06-07T07:25:59.260Z,8.10
2019-06-07T07:28:28.111Z,7.40
2019-06-07T07:30:57.702Z,7.10
2019-06-07T07:34:20.170Z,7.23
2019-06-07T07:38:30.007Z,7.07
2019-06-07T07:41:13.747Z,7.33
2019-06-07T07:43:30.688Z,6.27
2019-06-07T07:46:03.144Z,6.43
2019-06-07T07:48:31.654Z,6.83
2019-06-07T07:51:03.149Z,6.20
2019-06-07T07:53:47.802Z,7.40
2019-06-07T07:56:03.655Z,7.17
2019-06-07T07:58:33.420Z,6.33
2019-06-07T08:01:10.261Z,7.23
2019-06-07T08:03:33.999Z,6.37
2019-06-07T08:06:03.584Z,7.50
2019-06-07T08:08:33.085Z,6.80
2019-06-07T08:11:02.771Z,7.00
2019-06-07T08:13:32.344Z,7.00
2019-06-07T08:16:09.029Z,6.57
2019-06-07T08:18:32.973Z,6.90
2019-06-07T08:21:21.501Z,6.83
2019-06-07T08:23:33.575Z,6.30
2019-06-07T08:26:03.148Z,5.13
2019-06-07T08:28:32.604Z,4.63
2019-06-07T08:31:06.752Z,4.43
2019-06-07T08:33:33.211Z,4.13
2019-06-07T08:36:17.141Z,4.93
2019-06-07T08:38:47.023Z,4.03
2019-06-07T08:41:12.077Z,4.43
2019-06-07T08:43:36.260Z,4.60
2019-06-07T08:46:07.635Z,4.23
2019-06-07T08:48:36.853Z,4.80
2019-06-07T08:51:08.424Z,4.83
2019-06-07T08:53:37.438Z,4.17
2019-06-07T08:56:10.505Z,4.37
2019-06-07T08:58:38.071Z,4.13
2019-06-07T09:01:08.950Z,4.00
2019-06-07T09:03:38.983Z,4.00
2019-06-07T09:06:53.977Z,3.87
2019-06-07T09:08:39.790Z,3.47
2019-06-07T09:11:11.120Z,3.20
2019-06-07T09:13:40.473Z,3.07
2019-06-07T09:16:09.973Z,3.50
2019-06-07T09:18:43.678Z,3.97
2019-06-07T09:21:10.555Z,3.10
2019-06-07T09:23:40.026Z,2.80
2019-06-07T09:26:17.958Z,2.80
2019-06-07T09:28:41.120Z,3.13
2019-06-07T09:31:12.819Z,2.67
2019-06-07T09:33:41.718Z,2.93
2019-06-07T09:36:13.187Z,3.07
2019-06-07T09:38:43.118Z,2.83
2019-06-07T09:41:12.587Z,3.37
2019-06-07T09:46:15.980Z,2.30
2019-06-07T09:51:19.747Z,2.60
2019-06-07T09:53:46.592Z,2.47
2019-06-07T09:56:16.048Z,2.70
2019-06-07T09:58:52.052Z,2.30
2019-06-07T10:01:16.644Z,2.40
2019-06-07T10:03:46.089Z,2.60
2019-06-07T10:06:15.581Z,2.67
2019-06-07T10:11:16.508Z,2.87
2019-06-07T10:13:46.002Z,2.60
2019-06-07T10:16:15.544Z,2.23
2019-06-07T10:18:45.037Z,2.80
2019-06-07T10:21:15.351Z,2.53
2019-06-07T10:23:45.065Z,2.47
2019-06-07T10:26:14.562Z,3.03
2019-06-07T10:28:44.126Z,2.53
2019-06-07T10:31:13.577Z,2.50
2019-06-07T10:33:43.173Z,2.60
2019-06-07T10:36:12.645Z,2.80
2019-06-07T10:38:42.153Z,3.20
2019-06-07T10:41:11.636Z,2.40
2019-06-07T10:43:41.088Z,3.10
2019-06-07T10:46:12.063Z,3.17
2019-06-07T10:48:41.695Z,2.80
2019-06-07T10:51:12.367Z,2.30
2019-06-07T10:53:42.292Z,3.23
2019-06-07T10:56:13.189Z,2.50
2019-06-07T10:58:42.908Z,2.80
2019-06-07T11:01:14.134Z,2.60
2019-06-07T11:03:43.569Z,2.80
2019-06-07T11:06:14.217Z,2.33
2019-06-07T11:08:43.896Z,2.77
2019-06-07T11:11:14.402Z,2.90
2019-06-07T11:13:44.003Z,2.60
2019-06-07T11:16:15.445Z,3.03
2019-06-07T11:18:44.591Z,3.00
2019-06-07T11:21:14.364Z,2.90
2019-06-07T11:23:43.845Z,2.90
2019-06-07T11:26:14.413Z,3.10
2019-06-07T11:28:43.992Z,2.83
2019-06-07T11:31:14.697Z,2.67
2019-06-07T11:33:44.544Z,3.00
2019-06-07T11:36:15.274Z,3.07
2019-06-07T11:38:44.810Z,3.27
2019-06-07T11:41:15.716Z,3.10
2019-06-07T11:43:45.402Z,3.43
2019-06-07T11:46:15.125Z,3.13
2019-06-07T11:48:44.640Z,2.50
2019-06-07T11:51:14.938Z,3.73
2019-06-07T11:53:44.589Z,3.10
2019-06-07T11:56:14.050Z,3.10
2019-06-07T11:58:43.517Z,3.13
2019-06-07T12:01:14.881Z,2.93
2019-06-07T12:03:44.096Z,3.20
2019-06-07T12:06:14.556Z,3.30
2019-06-07T12:08:44.365Z,3.77
2019-06-07T12:11:14.361Z,3.30
2019-06-07T12:13:43.933Z,3.43
2019-06-07T12:16:15.242Z,3.00
2019-06-07T12:18:44.860Z,3.20
2019-06-07T12:21:15.643Z,2.70
2019-06-07T12:23:45.335Z,3.10
2019-06-07T12:26:14.863Z,3.60
2019-06-07T12:28:44.285Z,2.87
2019-06-07T12:31:14.925Z,3.70
2019-06-07T12:33:44.488Z,2.90
2019-06-07T12:36:13.961Z,3.07
2019-06-07T12:38:43.403Z,2.90
2019-06-07T12:41:13.995Z,3.03
2019-06-07T12:43:43.617Z,3.10
2019-06-07T12:46:16.633Z,3.13
2019-06-07T12:48:44.266Z,3.20
2019-06-07T12:51:15.076Z,3.00
2019-06-07T12:53:44.624Z,2.87
2019-06-07T12:56:15.555Z,3.00
2019-06-07T12:58:45.064Z,2.80
2019-06-07T13:01:15.891Z,3.20
2019-06-07T13:03:45.387Z,3.43
2019-06-07T13:06:15.425Z,2.87
2019-06-07T13:08:44.948Z,3.40
2019-06-07T13:11:21.243Z,3.30
2019-06-07T13:13:45.508Z,3.10
2019-06-07T13:16:16.344Z,3.13
2019-06-07T13:18:45.955Z,2.97
2019-06-07T13:21:16.193Z,3.20
2019-06-07T13:23:45.748Z,3.20
2019-06-07T13:26:16.776Z,3.40
2019-06-07T13:28:46.472Z,3.27
2019-06-07T13:31:16.544Z,3.10
2019-06-07T13:33:45.974Z,2.90
2019-06-07T13:36:16.022Z,2.67
2019-06-07T13:38:45.557Z,3.00
2019-06-07T13:41:30.232Z,3.17
2019-06-07T13:43:46.131Z,3.47
2019-06-07T13:46:16.845Z,2.77
2019-06-07T13:48:46.396Z,3.60
2019-06-07T13:51:18.389Z,3.27
2019-06-07T13:53:47.058Z,3.30
2019-06-07T13:56:17.761Z,2.87
2019-06-07T13:58:47.208Z,3.03
2019-06-07T14:01:16.704Z,3.07
2019-06-07T14:03:46.161Z,3.33
2019-06-07T14:06:15.657Z,2.90
2019-06-07T14:08:45.113Z,2.87
2019-06-07T14:11:14.613Z,3.10
2019-06-07T14:13:44.102Z,2.70
2019-06-07T14:16:13.631Z,3.00
2019-06-07T14:18:43.095Z,3.17
2019-06-07T14:21:12.570Z,2.97
2019-06-07T14:23:48.744Z,3.37
2019-06-07T14:26:13.160Z,2.93
2019-06-07T14:28:42.615Z,3.27
2019-06-07T14:31:12.117Z,3.27
2019-06-07T14:33:41.669Z,3.20
2019-06-07T14:36:11.200Z,3.67
2019-06-07T14:38:40.660Z,3.03
2019-06-07T14:41:10.148Z,3.23
2019-06-07T14:43:39.697Z,3.07
2019-06-07T14:46:09.209Z,2.63
2019-06-07T14:48:38.713Z,3.50
2019-06-07T14:51:08.210Z,3.50
2019-06-07T14:53:37.757Z,3.40
2019-06-07T14:56:07.247Z,2.90
2019-06-07T14:58:42.954Z,3.27
2019-06-07T15:01:07.821Z,2.93
2019-06-07T15:03:38.934Z,3.20
2019-06-07T15:06:08.472Z,3.30
2019-06-07T15:08:39.167Z,3.33
2019-06-07T15:11:08.744Z,3.40
2019-06-07T15:13:39.752Z,3.27
2019-06-07T15:16:09.407Z,3.23
2019-06-07T15:18:38.860Z,3.37
2019-06-07T15:21:08.337Z,3.20
2019-06-07T15:23:39.255Z,3.30
2019-06-07T15:26:08.793Z,3.80
2019-06-07T15:28:38.537Z,3.17
2019-06-07T15:31:13.304Z,3.07
2019-06-07T15:33:42.753Z,2.87
2019-06-07T15:36:12.243Z,3.50
2019-06-07T15:38:41.749Z,3.40
2019-06-07T15:41:11.205Z,3.50
2019-06-07T15:43:40.696Z,3.50
2019-06-07T15:46:13.853Z,3.47
2019-06-07T15:48:43.312Z,3.60
2019-06-07T15:51:12.845Z,3.77
2019-06-07T15:53:44.533Z,3.03
2019-06-07T15:56:13.453Z,2.80
2019-06-07T15:58:42.905Z,2.60
2019-06-07T16:01:12.397Z,3.80
2019-06-07T16:03:42.172Z,3.30
2019-06-07T16:06:11.835Z,3.33
2019-06-07T16:08:42.515Z,2.93
2019-06-07T16:11:12.075Z,3.40
2019-06-07T16:13:42.777Z,3.27
2019-06-07T16:16:12.454Z,3.27
2019-06-07T16:18:44.041Z,3.37
2019-06-07T16:21:13.122Z,3.67
2019-06-07T16:23:43.990Z,3.00
2019-06-07T16:26:13.598Z,3.07
2019-06-07T16:28:43.056Z,3.30
2019-06-07T16:31:12.520Z,2.63
2019-06-07T16:33:43.186Z,3.60
2019-06-07T16:36:12.727Z,3.37
2019-06-07T16:38:42.873Z,3.67
2019-06-07T16:41:12.376Z,3.27
2019-06-07T16:43:42.642Z,3.13
2019-06-07T16:46:12.272Z,3.27
2019-06-07T16:48:42.899Z,2.83
2019-06-07T16:51:12.468Z,3.10
2019-06-07T16:53:42.362Z,3.30
2019-06-07T16:56:11.931Z,3.30
2019-06-07T16:58:42.327Z,3.30
2019-06-07T17:01:12.040Z,3.33
2019-06-07T17:03:41.544Z,3.67
2019-06-07T17:06:11.005Z,3.43
2019-06-07T17:08:42.026Z,3.23
2019-06-07T17:11:11.642Z,3.60
2019-06-07T17:13:42.249Z,3.37
2019-06-07T17:16:11.805Z,3.40
2019-06-07T17:18:41.329Z,3.50
2019-06-07T17:21:10.787Z,3.40
2019-06-07T17:23:41.181Z,3.17
2019-06-07T17:26:10.794Z,3.37
2019-06-07T17:28:41.617Z,3.40
2019-06-07T17:31:11.196Z,3.10
2019-06-07T17:33:41.858Z,3.67
2019-06-07T17:36:13.228Z,4.00
2019-06-07T17:38:42.735Z,3.40
2019-06-07T17:41:12.234Z,3.93
2019-06-07T17:43:51.839Z,3.70
2019-06-07T17:46:12.842Z,3.87
2019-06-07T17:48:43.453Z,3.87
2019-06-07T17:51:13.114Z,3.53
2019-06-07T17:53:43.823Z,3.83
2019-06-07T17:56:13.382Z,4.07
2019-06-07T17:58:44.242Z,3.90
2019-06-07T18:01:13.761Z,4.27
2019-06-07T18:03:43.221Z,4.30
2019-06-07T18:06:14.027Z,3.80
2019-06-07T18:08:43.528Z,3.73
2019-06-07T18:11:13.025Z,3.63
2019-06-07T18:13:43.918Z,3.90
2019-06-07T18:16:13.489Z,4.03
2019-06-07T18:18:42.954Z,3.90
2019-06-07T18:21:12.453Z,3.90
2019-06-07T18:23:41.928Z,3.93
2019-06-07T18:26:11.422Z,4.20
2019-06-07T18:28:40.917Z,3.53
2019-06-07T18:31:10.366Z,3.87
2019-06-07T18:33:39.866Z,3.93
2019-06-07T18:36:09.333Z,3.90
2019-06-07T18:38:38.840Z,4.23
2019-06-07T18:41:08.317Z,3.80
2019-06-07T18:43:37.908Z,4.20
2019-06-07T18:46:07.397Z,3.53
2019-06-07T18:48:36.856Z,3.80
2019-06-07T18:51:06.452Z,4.40
2019-06-07T18:53:35.934Z,4.00
2019-06-07T18:56:05.573Z,4.03
2019-06-07T18:58:35.039Z,4.73
2019-06-07T19:01:04.532Z,4.77
2019-06-07T19:03:33.992Z,4.20
2019-06-07T19:06:03.641Z,4.20
2019-06-07T19:08:33.088Z,4.10
2019-06-07T19:11:02.611Z,4.30
2019-06-07T19:13:32.148Z,4.27
2019-06-07T19:16:01.608Z,3.90
2019-06-07T19:18:31.124Z,3.50
2019-06-07T19:21:00.709Z,4.47
2019-06-07T19:23:30.201Z,3.77
2019-06-07T19:26:00.693Z,3.90
2019-06-07T19:28:30.252Z,4.20
2019-06-07T19:30:59.746Z,4.13
2019-06-07T19:33:29.194Z,3.97
2019-06-07T19:35:59.532Z,4.37
2019-06-07T19:38:29.052Z,4.57
2019-06-07T19:41:15.108Z,4.57
2019-06-07T19:43:29.739Z,4.10
2019-06-07T19:46:00.306Z,4.53
2019-06-07T19:48:32.263Z,4.53
2019-06-07T19:51:03.065Z,4.93
2019-06-07T19:53:32.708Z,4.77
2019-06-07T19:56:03.360Z,5.37
2019-06-07T19:58:32.963Z,4.70
2019-06-07T20:01:02.431Z,5.20
2019-06-07T20:03:31.936Z,5.50
2019-06-07T20:06:02.367Z,5.50
2019-06-07T20:08:31.856Z,4.90
2019-06-07T20:11:02.645Z,5.40
2019-06-07T20:13:32.240Z,5.40
2019-06-07T20:16:02.930Z,4.37
2019-06-07T20:18:32.492Z,4.00
2019-06-07T20:21:02.653Z,2.90
2019-06-07T20:23:32.172Z,2.47
2019-06-07T20:26:02.483Z,2.57
2019-06-07T20:28:32.031Z,2.20
2019-06-07T20:31:01.979Z,2.63
2019-06-07T20:33:31.482Z,2.07
2019-06-07T20:36:00.929Z,1.77
2019-06-07T20:38:30.433Z,1.80
2019-06-07T20:41:01.072Z,1.90
2019-06-07T20:43:31.568Z,1.60
2019-06-07T20:46:03.529Z,1.67
2019-06-07T20:48:33.004Z,1.83
2019-06-07T20:51:02.830Z,1.33
2019-06-07T20:53:33.311Z,1.40
2019-06-07T20:56:02.798Z,1.10
2019-06-07T20:58:32.276Z,1.47
2019-06-07T21:01:02.721Z,1.17
2019-06-07T21:03:32.243Z,1.50
2019-06-07T21:06:01.688Z,1.10
2019-06-07T21:08:31.209Z,1.03
2019-06-07T21:11:03.561Z,0.90
2019-06-07T21:13:33.117Z,1.43
2019-06-07T21:16:02.591Z,1.20
2019-06-07T21:18:32.174Z,0.87
2019-06-07T21:21:02.353Z,0.77
2019-06-07T21:23:31.811Z,0.70
2019-06-07T21:26:02.509Z,1.10
2019-06-07T21:28:32.271Z,1.10
2019-06-07T21:31:03.466Z,0.80
2019-06-07T21:33:33.192Z,0.97
2019-06-07T21:36:04.402Z,1.10
2019-06-07T21:38:33.925Z,0.87
2019-06-07T21:41:04.141Z,1.10
2019-06-07T21:43:33.668Z,0.60
2019-06-07T21:46:06.968Z,1.30
2019-06-07T21:48:34.436Z,0.80
2019-06-07T21:51:04.262Z,0.90
2019-06-07T21:53:33.809Z,1.20
2019-06-07T21:56:04.715Z,0.70
2019-06-07T21:58:34.269Z,0.70
2019-06-07T22:01:23.872Z,1.00
2019-06-07T22:03:53.368Z,0.80
2019-06-07T22:06:22.833Z,0.87
2019-06-07T22:08:52.321Z,1.10
2019-06-07T22:11:21.789Z,0.93
2019-06-07T22:13:51.289Z,1.00
2019-06-07T22:16:28.616Z,1.00
2019-06-07T22:18:51.891Z,1.00
2019-06-07T22:21:21.397Z,1.17
2019-06-07T22:23:50.869Z,1.17
2019-06-07T22:26:20.822Z,0.67
2019-06-07T22:28:50.366Z,1.20
2019-06-07T22:31:19.965Z,0.90
2019-06-07T22:33:49.438Z,1.30
2019-06-07T22:36:19.506Z,0.70
2019-06-07T22:38:49.031Z,1.10
2019-06-07T22:41:18.484Z,1.10
2019-06-07T22:43:47.991Z,1.40
2019-06-07T22:46:17.466Z,0.90
2019-06-07T22:48:46.989Z,0.90
2019-06-07T22:51:16.524Z,0.90
2019-06-07T22:53:45.972Z,0.70
2019-06-07T22:56:29.596Z,0.90
2019-06-07T22:58:59.061Z,0.90
2019-06-07T23:01:28.503Z,1.00
2019-06-07T23:03:58.023Z,0.77
2019-06-07T23:06:27.510Z,0.90
2019-06-07T23:08:57.001Z,0.90
2019-06-07T23:11:26.455Z,1.20
2019-06-07T23:13:55.972Z,0.87
2019-06-07T23:16:25.452Z,0.90
2019-06-07T23:18:54.968Z,1.27
2019-06-07T23:21:28.237Z,0.90
2019-06-07T23:23:57.715Z,0.80
2019-06-07T23:26:27.205Z,0.90
2019-06-07T23:28:56.689Z,0.90
2019-06-07T23:31:26.155Z,1.00
2019-06-07T23:33:55.642Z,1.10
2019-06-07T23:36:25.172Z,1.03
2019-06-07T23:38:54.618Z,1.10
2019-06-07T23:41:24.141Z,1.17
2019-06-07T23:43:53.584Z,1.00
2019-06-07T23:46:23.088Z,1.07
2019-06-07T23:48:52.549Z,0.80
2019-06-07T23:51:22.170Z,1.30
2019-06-07T23:53:51.642Z,0.80
2019-06-07T23:56:22.299Z,0.93
2019-06-07T23:58:51.875Z,0.93
